Time;durP1;ratioP1;P1;durP2;ratioP2;P2;SDS_P1;SDS_P2;PMS_P1;PMS_P2;Temp;Humidity;BMP_temperature;BMP_pressure;BME280_temperature;BME280_humidity;BME280_pressure;Samples;Min_cycle;Max_cycle;Signal;HPM_P1;HPM_P2
2023/03/08 00:02:29;;;;;;;37.97;28.03;;;;;;;-0.51;100.00;99915.06;5263788;28;20078;-72
2023/03/08 00:05:00;;;;;;;40.53;28.67;;;;;;;-0.53;100.00;99911.59;5262497;28;20033;-72
2023/03/08 00:07:32;;;;;;;40.97;29.50;;;;;;;-0.54;100.00;99909.91;5263394;28;20453;-72
2023/03/08 00:10:04;;;;;;;41.47;28.60;;;;;;;-0.54;100.00;99915.00;5263121;28;20028;-72
2023/03/08 00:12:36;;;;;;;42.90;29.25;;;;;;;-0.54;100.00;99912.44;5263549;28;20408;-72
2023/03/08 00:15:07;;;;;;;41.97;28.90;;;;;;;-0.56;100.00;99905.59;5262629;28;20051;-72
2023/03/08 00:17:39;;;;;;;37.27;29.03;;;;;;;-0.57;100.00;99906.41;5263392;28;20119;-72
2023/03/08 00:20:12;;;;;;;44.57;29.87;;;;;;;-0.56;100.00;99910.72;5263343;28;20559;-73
2023/03/08 00:22:43;;;;;;;;;;;;;;;-0.58;100.00;99907.28;5263354;28;20290;-73
2023/03/08 00:25:15;;;;;;;40.72;28.35;;;;;;;-0.58;100.00;99907.28;5278632;28;19917;-72
2023/03/08 00:27:46;;;;;;;43.83;30.53;;;;;;;-0.58;100.00;99914.94;5263212;28;20029;-73
2023/03/08 00:30:18;;;;;;;40.93;30.17;;;;;;;-0.58;100.00;99917.50;5263121;28;20067;-71
2023/03/08 00:32:49;;;;;;;45.80;30.43;;;;;;;-0.55;100.00;99911.56;5261944;28;20550;-72
2023/03/08 00:35:20;;;;;;;40.53;30.07;;;;;;;-0.53;100.00;99907.38;5262962;28;20156;-73
2023/03/08 00:37:52;;;;;;;45.63;31.77;;;;;;;-0.56;100.00;99908.16;5262053;28;20037;-72
2023/03/08 00:40:23;;;;;;;41.90;30.43;;;;;;;-0.53;100.00;99909.91;5262224;28;20055;-72
2023/03/08 00:42:54;;;;;;;42.67;30.77;;;;;;;-0.52;100.00;99908.22;5263087;28;20040;-73
2023/03/08 00:45:26;;;;;;;40.57;30.60;;;;;;;-0.52;100.00;99914.19;5262575;28;20044;-72
2023/03/08 00:47:57;;;;;;;43.07;30.47;;;;;;;-0.51;100.00;99910.81;5262627;28;20041;-71
2023/03/08 00:50:28;;;;;;;43.17;31.13;;;;;;;-0.50;100.00;99907.41;5262636;28;20025;-71
2023/03/08 00:53:00;;;;;;;45.70;32.47;;;;;;;-0.49;100.00;99900.59;5262803;28;20044;-71
2023/03/08 00:55:31;;;;;;;41.77;31.50;;;;;;;-0.46;100.00;99904.06;5262551;28;20111;-72
2023/03/08 00:58:03;;;;;;;42.93;31.93;;;;;;;-0.45;100.00;99902.34;5262767;28;20037;-72
2023/03/08 01:00:34;;;;;;;47.50;32.77;;;;;;;-0.43;100.00;99898.16;5262857;28;20037;-72
2023/03/08 01:03:06;;;;;;;44.60;31.23;;;;;;;-0.43;100.00;99899.00;5262814;28;20527;-73
2023/03/08 01:05:42;;;;;;;50.47;33.37;;;;;;;-0.40;100.00;99899.06;5261467;28;20060;-73
2023/03/08 01:08:15;;;;;;;47.10;33.83;;;;;;;-0.38;100.00;99892.25;5262680;28;20036;-72
2023/03/08 01:10:51;;;;;;;54.33;36.38;;;;;;;-0.34;100.00;99889.75;5262606;28;20044;-71
2023/03/08 01:13:25;;;;;;;56.63;35.40;;;;;;;-0.31;100.00;99889.81;5262634;28;20086;-72
2023/03/08 01:15:56;;;;;;;61.95;38.40;;;;;;;-0.28;100.00;99887.28;5261962;28;20029;-72
2023/03/08 01:18:28;;;;;;;53.17;36.30;;;;;;;-0.31;100.00;99872.72;5262379;28;20051;-72
2023/03/08 01:21:02;;;;;;;59.67;39.37;;;;;;;-0.28;100.00;99872.78;5260871;28;20052;-72
2023/03/08 01:23:34;;;;;;;61.50;38.78;;;;;;;-0.25;100.00;99866.84;5262423;28;20295;-72
2023/03/08 01:26:10;;;;;;;56.47;39.13;;;;;;;-0.24;100.00;99866.00;5262614;28;20120;-72
2023/03/08 01:28:42;;;;;;;57.60;37.13;;;;;;;-0.22;100.00;99854.97;5262713;28;20033;-72
2023/03/08 01:31:16;;;;;;;62.05;38.92;;;;;;;-0.21;100.00;99851.56;5262421;28;20037;-71
2023/03/08 01:33:48;;;;;;;66.43;40.47;;;;;;;-0.19;100.00;99851.59;5261097;28;20038;-71
2023/03/08 01:36:22;;;;;;;63.35;38.90;;;;;;;-0.16;100.00;99840.50;5262338;28;20029;-71
2023/03/08 01:38:54;;;;;;;60.40;39.53;;;;;;;-0.16;100.00;99828.59;5262277;28;20109;-72
2023/03/08 01:41:29;;;;;;;65.77;40.90;;;;;;;-0.12;100.00;99835.47;5262388;28;20111;-71
2023/03/08 01:44:01;;;;;;;68.32;41.42;;;;;;;-0.13;100.00;99838.88;5262281;28;20032;-71
2023/03/08 01:46:34;;;;;;;67.23;40.13;;;;;;;-0.10;100.00;99826.09;5263043;28;20539;-72
2023/03/08 01:49:18;;;;;;;69.55;41.55;;;;;;;-0.08;100.00;99829.56;5266243;28;20120;-72
2023/03/08 01:51:52;;;;;;;70.43;42.60;;;;;;;-0.08;100.00;99818.44;5266256;28;20396;-71
2023/03/08 01:54:38;;;;;;;67.35;41.65;;;;;;;-0.09;100.00;99817.59;5265766;28;20123;-71
2023/03/08 01:57:15;;;;;;;61.47;39.10;;;;;;;-0.06;100.00;99821.91;5266005;28;20032;-71
2023/03/08 01:59:49;;;;;;;70.30;42.70;;;;;;;-0.06;100.00;99819.34;5264712;28;20104;-71
2023/03/08 02:02:25;;;;;;;72.55;43.53;;;;;;;-0.06;100.00;99817.63;5265923;28;20032;-71
2023/03/08 02:04:56;;;;;;;67.82;40.42;;;;;;;-0.06;100.00;99812.50;5265849;28;20238;-72
2023/03/08 02:07:28;;;;;;;72.83;42.43;;;;;;;-0.06;100.00;99815.06;5264669;28;20231;-71
2023/03/08 02:09:59;;;;;;;76.30;43.80;;;;;;;-0.06;100.00;99821.91;5265812;28;20036;-72
2023/03/08 02:12:31;;;;;;;70.73;43.63;;;;;;;-0.02;100.00;99808.28;5265734;28;20048;-71
2023/03/08 02:15:07;;;;;;;66.82;42.53;;;;;;;0.00;100.00;99793.81;5265004;28;20104;-71
2023/03/08 02:17:40;;;;;;;74.50;42.38;;;;;;;0.00;100.00;99788.69;5264266;28;20106;-71
2023/03/08 02:20:31;;;;;;;72.80;41.83;;;;;;;0.03;100.00;99785.28;5265210;28;20049;-72
2023/03/08 02:23:13;;;;;;;69.18;42.47;;;;;;;0.01;100.00;99771.59;5265370;28;20036;-71
2023/03/08 02:25:55;;;;;;;67.30;42.95;;;;;;;0.01;100.00;99779.28;5265608;28;20107;-71
2023/03/08 02:28:28;;;;;;;67.33;40.63;;;;;;;-0.01;100.00;99775.00;5265379;28;20029;-72
2023/03/08 02:30:59;;;;;;;65.75;41.33;;;;;;;-0.01;100.00;99772.44;5265402;28;20028;-71
2023/03/08 02:33:32;;;;;;;71.07;42.37;;;;;;;0.01;100.00;99774.16;5264054;28;20033;-71
2023/03/08 02:36:07;;;;;;;63.45;40.45;;;;;;;0.02;100.00;99763.06;5265209;28;20361;-72
2023/03/08 02:38:38;;;;;;;69.38;41.58;;;;;;;0.03;100.00;99764.78;5263648;28;20028;-72
2023/03/08 02:41:09;;;;;;;64.67;39.77;;;;;;;0.02;100.00;99757.94;5265127;28;20040;-72
2023/03/08 02:43:41;;;;;;;65.30;38.77;;;;;;;0.00;100.00;99768.19;5264792;28;20111;-72
2023/03/08 02:46:13;;;;;;;58.53;38.53;;;;;;;0.05;100.00;99757.97;5263448;28;20040;-72
2023/03/08 02:48:48;;;;;;;61.23;38.33;;;;;;;0.02;100.00;99760.50;5265090;28;20059;-71
2023/03/08 02:51:20;;;;;;;63.42;39.60;;;;;;;0.02;100.00;99755.38;5265153;28;20522;-72
2023/03/08 02:53:51;;;;;;;58.87;38.07;;;;;;;0.01;100.00;99756.22;5271398;28;20029;-71
2023/03/08 02:56:23;;;;;;;62.53;40.40;;;;;;;0.02;100.00;99752.81;5269343;28;20029;-72
2023/03/08 02:58:54;;;;;;;56.07;37.27;;;;;;;-0.02;100.00;99750.25;5267408;28;20021;-72
2023/03/08 03:01:26;;;;;;;57.33;38.43;;;;;;;-0.02;100.00;99741.66;5264677;28;20033;-72
2023/03/08 03:03:57;;;;;;;57.10;38.23;;;;;;;-0.02;100.00;99741.66;5264968;28;20040;-72
2023/03/08 03:06:28;;;;;;;60.77;38.67;;;;;;;-0.03;100.00;99740.81;5264995;28;20029;-72
2023/03/08 03:09:00;;;;;;;57.43;38.47;;;;;;;-0.05;100.00;99745.06;5264924;28;20036;-72
2023/03/08 03:11:31;;;;;;;52.47;36.27;;;;;;;-0.06;100.00;99724.56;5264761;28;20034;-72
2023/03/08 03:14:03;;;;;;;53.43;36.70;;;;;;;-0.04;100.00;99720.31;5264861;28;20142;-72
2023/03/08 03:16:35;;;;;;;58.47;38.27;;;;;;;-0.05;100.00;99732.25;5262957;28;20037;-72
2023/03/08 03:19:07;;;;;;;55.28;35.75;;;;;;;-0.06;100.00;99722.84;5263268;28;20035;-72
2023/03/08 03:21:39;;;;;;;62.27;38.17;;;;;;;-0.07;100.00;99718.53;5264273;28;20049;-73
2023/03/08 03:24:10;;;;;;;57.33;38.30;;;;;;;-0.08;100.00;99719.41;5246488;28;20047;-72
2023/03/08 03:26:42;;;;;;;54.63;37.80;;;;;;;-0.08;100.00;99711.72;5264749;28;20033;-72
2023/03/08 03:29:13;;;;;;;57.67;38.47;;;;;;;-0.05;100.00;99701.50;5264095;28;20033;-72
2023/03/08 03:31:45;;;;;;;58.43;38.47;;;;;;;-0.05;100.00;99701.50;5264025;28;20037;-72
2023/03/08 03:34:16;;;;;;;55.37;36.87;;;;;;;-0.06;100.00;99689.53;5264266;28;20028;-72
2023/03/08 03:36:47;;;;;;;59.60;39.20;;;;;;;-0.07;100.00;99672.44;5264264;28;20094;-72
2023/03/08 03:39:19;;;;;;;58.37;37.87;;;;;;;-0.05;100.00;99668.22;5264132;28;20451;-72
2023/03/08 03:41:50;;;;;;;64.73;40.20;;;;;;;-0.08;100.00;99668.16;5264148;28;20391;-72
2023/03/08 03:44:21;;;;;;;64.30;40.97;;;;;;;-0.06;100.00;99679.28;5263356;28;20547;-72
2023/03/08 03:46:53;;;;;;;63.97;40.97;;;;;;;-0.08;100.00;99670.72;5263931;28;20021;-73
2023/03/08 03:49:24;;;;;;;63.57;39.90;;;;;;;-0.04;100.00;99676.75;5263686;28;20132;-73
2023/03/08 03:51:56;;;;;;;63.13;41.43;;;;;;;-0.08;100.00;99670.72;5264058;28;20388;-72
2023/03/08 03:54:27;;;;;;;64.40;40.40;;;;;;;-0.09;100.00;99676.69;5263823;28;20041;-72
2023/03/08 03:56:59;;;;;;;58.60;38.00;;;;;;;-0.10;100.00;99668.97;5263996;28;20029;-72
2023/03/08 03:59:32;;;;;;;55.57;37.73;;;;;;;-0.10;100.00;99667.28;5263709;28;20048;-72
2023/03/08 04:02:03;;;;;;;53.47;35.72;;;;;;;-0.09;100.00;99660.47;5263812;28;20412;-71
2023/03/08 04:04:34;;;;;;;53.43;36.57;;;;;;;-0.10;100.00;99663.84;5263524;28;20029;-72
2023/03/08 04:07:06;;;;;;;52.10;35.90;;;;;;;-0.08;100.00;99660.47;5253344;28;20026;-72
2023/03/08 04:09:37;;;;;;;49.13;34.63;;;;;;;-0.09;100.00;99642.53;5242159;28;20061;-73
2023/03/08 04:12:08;;;;;;;50.47;33.57;;;;;;;-0.09;100.00;99643.38;5241768;28;20037;-72
2023/03/08 04:14:40;;;;;;;52.43;34.77;;;;;;;-0.07;100.00;99645.97;5242250;28;20041;-73
2023/03/08 04:17:11;;;;;;;50.90;34.70;;;;;;;-0.05;100.00;99641.72;5241440;28;20061;-72
2023/03/08 04:19:43;;;;;;;50.20;33.10;;;;;;;-0.07;100.00;99636.56;5242439;28;20033;-72
2023/03/08 04:22:14;;;;;;;47.00;31.77;;;;;;;-0.05;100.00;99629.78;5242681;28;20033;-72
2023/03/08 04:24:45;;;;;;;51.47;33.83;;;;;;;-0.04;100.00;99626.34;5242273;28;20033;-71
2023/03/08 04:27:17;;;;;;;45.03;30.27;;;;;;;-0.03;100.00;99617.84;5242246;28;20042;-72
2023/03/08 04:29:48;;;;;;;49.50;31.17;;;;;;;-0.03;100.00;99611.88;5242173;28;20041;-72
2023/03/08 04:32:19;;;;;;;39.93;28.57;;;;;;;-0.05;100.00;99601.59;5241187;28;20385;-72
2023/03/08 04:34:51;;;;;;;42.73;29.70;;;;;;;-0.04;100.00;99605.88;5242351;28;20392;-72
2023/03/08 04:37:23;;;;;;;39.50;28.00;;;;;;;-0.04;100.00;99605.00;5241110;28;20037;-72
2023/03/08 04:39:55;;;;;;;42.03;28.83;;;;;;;-0.03;100.00;99602.47;5242262;28;20038;-73
2023/03/08 04:42:26;;;;;;;41.53;28.43;;;;;;;-0.04;100.00;99594.75;5241979;28;20366;-73
2023/03/08 04:44:57;;;;;;;41.73;27.47;;;;;;;-0.04;100.00;99592.22;5255367;28;20029;-72
2023/03/08 04:47:29;;;;;;;38.97;27.13;;;;;;;-0.03;100.00;99589.66;5243087;28;20478;-72
2023/03/08 04:50:00;;;;;;;37.17;26.33;;;;;;;-0.02;100.00;99583.72;5260161;28;20059;-72
2023/03/08 04:52:31;;;;;;;33.77;24.70;;;;;;;-0.04;100.00;99579.41;5261892;28;20032;-72
2023/03/08 04:55:03;;;;;;;36.30;25.73;;;;;;;-0.05;100.00;99582.78;5262254;28;20079;-72
2023/03/08 04:57:35;;;;;;;32.77;23.50;;;;;;;-0.04;100.00;99577.69;5262651;28;20102;-72
2023/03/08 05:00:07;;;;;;;32.90;23.93;;;;;;;-0.04;100.00;99571.72;5262759;28;20029;-72
2023/03/08 05:02:38;;;;;;;33.72;22.73;;;;;;;-0.04;100.00;99557.19;5242640;28;20037;-72
2023/03/08 05:05:09;;;;;;;33.93;23.27;;;;;;;-0.06;100.00;99550.34;5241057;28;20037;-72
2023/03/08 05:07:41;;;;;;;33.97;24.37;;;;;;;-0.04;100.00;99543.53;5241225;28;20026;-72
2023/03/08 05:10:12;;;;;;;33.30;23.63;;;;;;;-0.04;100.00;99539.25;5241262;28;20088;-72
2023/03/08 05:12:44;;;;;;;30.80;22.27;;;;;;;-0.04;100.00;99541.81;5241190;28;20546;-72
2023/03/08 05:15:15;;;;;;;31.57;23.00;;;;;;;-0.06;100.00;99540.94;5241136;28;20057;-72
2023/03/08 05:17:46;;;;;;;30.30;22.47;;;;;;;-0.03;100.00;99540.97;5241669;28;20038;-71
2023/03/08 05:20:18;;;;;;;32.63;23.13;;;;;;;-0.04;100.00;99535.84;5242066;28;20093;-71
2023/03/08 05:22:49;;;;;;;31.70;22.30;;;;;;;-0.05;100.00;99524.75;5245677;28;20025;-71
2023/03/08 05:25:21;;;;;;;31.83;21.70;;;;;;;-0.07;100.00;99518.72;5245952;28;20025;-71
2023/03/08 05:27:52;;;;;;;32.03;22.80;;;;;;;-0.07;100.00;99513.59;5246015;28;20033;-71
2023/03/08 05:30:24;;;;;;;30.37;22.07;;;;;;;-0.04;100.00;99518.75;5245868;28;20093;-71
2023/03/08 05:32:55;;;;;;;32.20;22.33;;;;;;;-0.05;100.00;99501.69;5245750;28;20034;-71
2023/03/08 05:35:27;;;;;;;32.23;23.30;;;;;;;-0.02;100.00;99511.97;5245768;28;20507;-71
2023/03/08 05:37:58;;;;;;;29.10;21.13;;;;;;;-0.03;100.00;99499.16;5245708;28;20061;-71
2023/03/08 05:40:29;;;;;;;31.07;21.30;;;;;;;-0.06;100.00;99494.00;5245350;28;20026;-71
2023/03/08 05:43:01;;;;;;;30.53;20.73;;;;;;;-0.05;100.00;99483.75;5245498;28;20061;-71
2023/03/08 05:45:32;;;;;;;28.20;20.10;;;;;;;-0.07;100.00;99472.63;5247292;28;20029;-71
2023/03/08 05:48:04;;;;;;;26.67;16.63;;;;;;;-0.14;100.00;99473.41;5266293;28;20048;-71
2023/03/08 05:50:38;;;;;;;21.90;16.73;;;;;;;-0.24;100.00;99469.03;5266268;28;20029;-71
2023/03/08 05:53:10;;;;;;;18.23;12.60;;;;;;;-0.26;100.00;99468.16;5271368;28;20060;-71
2023/03/08 05:55:41;;;;;;;17.23;12.17;;;;;;;-0.32;100.00;99456.19;5270764;28;20029;-71
2023/03/08 05:58:13;;;;;;;17.97;13.00;;;;;;;-0.35;100.00;99452.72;5270835;28;20060;-71
2023/03/08 06:00:45;;;;;;;15.77;11.80;;;;;;;-0.45;100.00;99444.97;5266365;28;20041;-72
2023/03/08 06:03:16;;;;;;;16.20;11.47;;;;;;;-0.43;100.00;99439.84;5266109;28;20440;-71
2023/03/08 06:05:47;;;;;;;16.03;11.37;;;;;;;-0.45;100.00;99432.16;5266162;28;20112;-71
2023/03/08 06:08:19;;;;;;;17.40;12.10;;;;;;;-0.46;100.00;99438.09;5266059;28;20033;-71
2023/03/08 06:10:50;;;;;;;19.47;11.57;;;;;;;-0.48;100.00;99434.69;5266041;28;20033;-71
2023/03/08 06:13:21;;;;;;;20.57;12.40;;;;;;;-0.50;100.00;99438.94;5265850;28;20044;-71
2023/03/08 06:15:57;;;;;;;19.70;12.10;;;;;;;-0.58;100.00;99443.09;5265456;28;20040;-71
2023/03/08 06:18:29;;;;;;;18.08;12.07;;;;;;;-0.57;100.00;99434.59;5265831;28;20449;-71
2023/03/08 06:21:02;;;;;;;17.63;11.37;;;;;;;-0.61;100.00;99433.69;5265359;28;20060;-71
2023/03/08 06:23:34;;;;;;;16.27;11.20;;;;;;;-0.65;100.00;99434.50;5265566;28;20837;-71
2023/03/08 06:26:07;;;;;;;18.80;11.90;;;;;;;-0.63;100.00;99437.06;5265671;28;20111;-71
2023/03/08 06:28:42;;;;;;;16.20;10.90;;;;;;;-0.66;100.00;99429.34;5265894;28;20461;-72
2023/03/08 06:31:15;;;;;;;16.65;10.70;;;;;;;-0.68;100.00;99429.34;5263635;28;20024;-71
2023/03/08 06:33:47;;;;;;;13.90;9.30;;;;;;;-0.68;100.00;99425.94;5265441;28;20354;-72
2023/03/08 06:36:20;;;;;;;14.33;9.20;;;;;;;-0.73;100.00;99429.28;5265319;28;20037;-71
2023/03/08 06:38:52;;;;;;;14.25;9.23;;;;;;;-0.75;100.00;99418.19;5264909;28;20021;-71
2023/03/08 06:41:23;;;;;;;13.37;8.17;;;;;;;-0.70;100.00;99412.28;5265422;28;20025;-71
2023/03/08 06:43:55;;;;;;;14.10;9.13;;;;;;;-0.68;100.00;99413.13;5266008;28;20040;-72
2023/03/08 06:46:27;;;;;;;10.88;7.35;;;;;;;-0.79;100.00;99415.56;5264670;28;20044;-72
2023/03/08 06:48:59;;;;;;;12.83;7.30;;;;;;;-0.78;100.00;99418.16;5265306;28;20032;-71
2023/03/08 06:51:30;;;;;;;13.00;6.85;;;;;;;-0.77;100.00;99416.47;5265007;28;20033;-72
2023/03/08 06:54:01;;;;;;;10.43;6.40;;;;;;;-0.83;100.00;99422.34;5265073;28;20040;-71
2023/03/08 06:56:33;;;;;;;9.73;6.90;;;;;;;-0.85;100.00;99426.59;5265003;28;20028;-72
2023/03/08 06:59:04;;;;;;;11.43;6.67;;;;;;;-0.81;100.00;99425.78;5265060;28;20036;-72
2023/03/08 07:01:35;;;;;;;8.97;5.97;;;;;;;-0.84;100.00;99420.63;5264965;28;20108;-72
2023/03/08 07:04:07;;;;;;;9.53;5.60;;;;;;;-0.84;100.00;99427.47;5264884;28;20032;-72
2023/03/08 07:06:38;;;;;;;11.27;5.87;;;;;;;-0.84;100.00;99419.78;5263262;28;20025;-72
2023/03/08 07:09:10;;;;;;;9.00;6.07;;;;;;;-0.85;100.00;99418.06;5264527;28;20041;-71
2023/03/08 07:11:42;;;;;;;10.83;6.33;;;;;;;-0.85;100.00;99411.25;5264855;28;20040;-72
2023/03/08 07:14:13;;;;;;;10.50;6.50;;;;;;;-0.85;100.00;99408.69;5263886;28;20029;-72
2023/03/08 07:16:45;;;;;;;8.40;5.83;;;;;;;-0.86;100.00;99406.97;5264362;28;20040;-72
2023/03/08 07:19:17;;;;;;;10.60;5.93;;;;;;;-0.88;100.00;99398.44;5264568;28;20029;-73
2023/03/08 07:21:48;;;;;;;12.10;6.97;;;;;;;-0.82;100.00;99400.19;5264754;28;20049;-73
2023/03/08 07:24:19;;;;;;;10.57;5.37;;;;;;;-0.83;100.00;99394.22;5264307;28;20025;-72
2023/03/08 07:26:51;;;;;;;10.47;4.77;;;;;;;-0.79;100.00;99393.41;5264428;28;20120;-73
2023/03/08 07:29:22;;;;;;;8.13;5.00;;;;;;;-0.78;100.00;99384.03;5264198;28;20025;-72
2023/03/08 07:31:54;;;;;;;8.33;4.50;;;;;;;-0.82;100.00;99390.81;5264507;28;20465;-72
2023/03/08 07:34:25;;;;;;;10.47;5.80;;;;;;;-0.81;100.00;99379.72;5264241;28;20037;-72
2023/03/08 07:36:57;;;;;;;7.57;4.67;;;;;;;-0.77;100.00;99372.97;5264353;28;20472;-72
2023/03/08 07:39:28;;;;;;;11.10;6.00;;;;;;;-0.81;100.00;99372.06;5264205;28;20481;-72
2023/03/08 07:41:59;;;;;;;15.83;6.50;;;;;;;-0.81;100.00;99364.38;5264245;28;20063;-72
2023/03/08 07:44:31;;;;;;;9.50;5.47;;;;;;;-0.74;100.00;99357.66;5263271;28;20050;-72
2023/03/08 07:47:04;;;;;;;10.70;5.97;;;;;;;-0.69;100.00;99362.78;5263723;28;20036;-72
2023/03/08 07:49:36;;;;;;;9.98;6.70;;;;;;;-0.70;100.00;99368.75;5262812;28;20496;-72
2023/03/08 07:52:07;;;;;;;12.17;7.27;;;;;;;-0.65;100.00;99357.72;5263902;28;20128;-72
2023/03/08 07:54:39;;;;;;;10.27;7.50;;;;;;;-0.66;100.00;99353.47;5263861;28;20111;-72
2023/03/08 07:57:14;;;;;;;10.10;6.97;;;;;;;-0.61;100.00;99356.03;5263775;28;20040;-72
2023/03/08 07:59:45;;;;;;;11.15;7.20;;;;;;;-0.63;100.00;99350.94;5263716;28;20040;-72
2023/03/08 08:02:16;;;;;;;11.43;8.30;;;;;;;-0.59;100.00;99336.47;5263737;28;20029;-72
2023/03/08 08:04:49;;;;;;;13.53;8.37;;;;;;;-0.57;100.00;99335.59;5263838;28;20051;-73
2023/03/08 08:07:20;;;;;;;12.00;8.10;;;;;;;-0.52;100.00;99339.91;5263591;28;20028;-73
2023/03/08 08:09:53;;;;;;;9.87;8.53;;;;;;;-0.46;100.00;99338.25;5263424;28;20488;-73
2023/03/08 08:12:24;;;;;;;12.68;8.98;;;;;;;-0.42;100.00;99332.34;5263738;28;20562;-74
2023/03/08 08:14:56;;;;;;;13.73;9.30;;;;;;;-0.38;100.00;99343.47;5263149;28;20033;-74
2023/03/08 08:17:28;;;;;;;14.02;9.65;;;;;;;-0.40;100.00;99335.75;5263601;28;20384;-73
2023/03/08 08:19:59;;;;;;;12.73;9.27;;;;;;;-0.37;100.00;99337.50;5263375;28;20044;-73
2023/03/08 08:22:34;;;;;;;12.57;10.07;;;;;;;-0.35;100.00;99324.69;5262197;28;20076;-73
2023/03/08 08:25:06;;;;;;;13.73;9.77;;;;;;;-0.33;100.00;99318.75;5263308;28;20036;-73
2023/03/08 08:27:38;;;;;;;12.90;10.38;;;;;;;-0.37;100.00;99304.22;5263098;28;20029;-73
2023/03/08 08:30:12;;;;;;;15.23;11.33;;;;;;;-0.32;100.00;99296.53;5262843;28;20029;-74
2023/03/08 08:32:44;;;;;;;12.18;10.52;;;;;;;-0.30;100.00;99303.41;5262750;28;20059;-75
2023/03/08 08:35:15;;;;;;;11.40;10.00;;;;;;;-0.27;100.00;99302.59;5261928;28;20029;-73
2023/03/08 08:37:47;;;;;;;14.63;9.60;;;;;;;-0.38;100.00;99293.09;5263630;28;20037;-74
2023/03/08 08:40:18;;;;;;;13.43;9.53;;;;;;;-0.44;100.00;99290.50;5263209;28;20044;-75
2023/03/08 08:42:51;;;;;;;13.07;8.87;;;;;;;-0.38;100.00;99282.00;5262230;28;20535;-74
2023/03/08 08:45:22;;;;;;;11.23;9.00;;;;;;;-0.44;100.00;99287.09;5264619;28;20053;-72
2023/03/08 08:47:53;;;;;;;13.20;7.87;;;;;;;-0.38;100.00;99289.69;5278735;28;20029;-72
2023/03/08 08:50:25;;;;;;;10.10;8.40;;;;;;;-0.47;100.00;99302.41;5277999;28;20041;-74
2023/03/08 08:52:56;;;;;;;10.53;8.97;;;;;;;-0.45;100.00;99287.91;5266757;28;20025;-74
2023/03/08 08:55:27;;;;;;;12.77;9.63;;;;;;;-0.38;100.00;99293.09;5264713;28;20029;-72
2023/03/08 08:58:00;;;;;;;10.50;8.67;;;;;;;-0.31;100.00;99311.91;5264091;28;20456;-74
2023/03/08 09:00:33;;;;;;;11.07;8.75;;;;;;;-0.21;100.00;99320.53;5263103;28;20479;-73
2023/03/08 09:03:04;;;;;;;;;;;;;;;0.04;100.00;99321.56;5263200;28;20037;-72
2023/03/08 09:05:41;;;;;;;15.52;9.88;;;;;;;-0.10;100.00;99323.16;5263012;28;19917;-73
2023/03/08 09:08:13;;;;;;;11.57;9.38;;;;;;;-0.20;100.00;99328.22;5262579;28;20029;-73
2023/03/08 09:10:44;;;;;;;10.93;9.53;;;;;;;-0.28;100.00;99321.34;5262687;28;20032;-73
2023/03/08 09:13:16;;;;;;;13.60;10.60;;;;;;;-0.29;100.00;99306.81;5262576;28;20036;-72
2023/03/08 09:15:47;;;;;;;14.13;10.73;;;;;;;-0.25;100.00;99303.44;5261918;28;20050;-73
2023/03/08 09:18:18;;;;;;;13.70;11.03;;;;;;;-0.26;100.00;99286.34;5262607;28;20032;-72
2023/03/08 09:20:50;;;;;;;13.17;10.50;;;;;;;-0.25;100.00;99268.44;5262697;28;20053;-73
2023/03/08 09:23:22;;;;;;;12.23;10.52;;;;;;;-0.15;100.00;99258.25;5262440;28;20064;-73
2023/03/08 09:25:57;;;;;;;14.43;11.33;;;;;;;-0.13;100.00;99254.88;5261437;28;20029;-73
2023/03/08 09:28:32;;;;;;;15.52;11.80;;;;;;;-0.14;100.00;99250.59;5262598;28;20075;-74
2023/03/08 09:31:10;;;;;;;13.40;10.95;;;;;;;-0.02;100.00;99249.78;5262412;28;20032;-72
2023/03/08 09:33:48;;;;;;;12.57;10.75;;;;;;;0.03;100.00;99245.53;5262239;28;20033;-73
2023/03/08 09:36:19;;;;;;;12.07;10.48;;;;;;;0.08;100.00;99243.88;5262435;28;20036;-73
2023/03/08 09:38:52;;;;;;;14.57;9.98;;;;;;;0.25;100.00;99238.81;5262152;28;20033;-73
2023/03/08 09:41:33;;;;;;;10.15;9.00;;;;;;;0.38;100.00;99226.06;5262179;28;20065;-73
2023/03/08 09:44:23;;;;;;;14.18;8.88;;;;;;;0.41;100.00;99234.59;5260954;28;20040;-74
2023/03/08 09:47:01;;;;;;;12.93;8.32;;;;;;;0.33;100.00;99226.03;5260819;28;20062;-73
2023/03/08 09:49:35;;;;;;;10.13;8.27;;;;;;;0.51;100.00;99218.38;5262391;28;20483;-73
2023/03/08 09:52:16;;;;;;;12.30;9.82;;;;;;;0.79;100.00;99218.47;5262044;28;20028;-74
2023/03/08 09:54:49;;;;;;;11.15;9.52;;;;;;;0.85;100.00;99220.16;5262372;28;20522;-74
2023/03/08 09:57:51;;;;;;;12.18;8.80;;;;;;;1.12;100.00;99226.19;5261034;28;20033;-73
2023/03/08 10:00:30;;;;;;;10.52;7.90;;;;;;;1.01;100.00;99224.47;5252804;28;20044;-73
2023/03/08 10:03:02;;;;;;;10.73;9.02;;;;;;;1.26;100.00;99216.78;5262148;28;20029;-73
2023/03/08 10:05:40;;;;;;;12.48;9.73;;;;;;;1.34;100.00;99209.94;5262072;28;20063;-73
2023/03/08 10:08:44;;;;;;;13.07;10.05;;;;;;;1.71;100.00;99206.47;5265380;28;20086;-72
2023/03/08 10:11:22;;;;;;;12.73;11.05;;;;;;;1.92;100.00;99206.41;5265943;28;20029;-73
2023/03/08 10:13:58;;;;;;;13.60;11.07;;;;;;;1.99;100.00;99225.22;5265836;28;20029;-73
2023/03/08 10:16:39;;;;;;;12.43;10.60;;;;;;;2.08;100.00;99237.19;5264115;28;20037;-73
2023/03/08 10:19:19;;;;;;;13.05;11.68;;;;;;;1.97;100.00;99230.38;5265795;28;20487;-72
2023/03/08 10:21:52;;;;;;;12.10;10.90;;;;;;;1.81;100.00;99221.84;5265411;28;20124;-73
2023/03/08 10:24:27;;;;;;;;;;;;;;;2.17;100.00;99219.16;5265758;28;20075;-73
2023/03/08 10:27:09;;;;;;;14.80;12.65;;;;;;;1.84;100.00;99210.72;5265685;28;19913;-73
2023/03/08 10:29:50;;;;;;;14.65;13.13;;;;;;;2.02;100.00;99202.06;5265459;28;20538;-72
2023/03/08 10:32:23;;;;;;;16.20;14.40;;;;;;;1.95;100.00;99213.25;5265503;28;20025;-72
2023/03/08 10:35:03;;;;;;;15.15;13.55;;;;;;;2.26;100.00;99213.97;5265819;28;20120;-73
2023/03/08 10:37:35;;;;;;;16.25;14.55;;;;;;;2.41;100.00;99214.78;5265368;28;20526;-73
2023/03/08 10:40:18;;;;;;;15.63;14.03;;;;;;;2.61;100.00;99214.66;5265306;28;20235;-73
2023/03/08 10:43:04;;;;;;;16.20;13.90;;;;;;;2.45;100.00;99190.75;5265230;28;20032;-71
2023/03/08 10:45:35;;;;;;;14.20;12.80;;;;;;;2.31;100.00;99175.41;5264913;28;20025;-73
2023/03/08 10:48:19;;;;;;;14.47;12.83;;;;;;;2.36;100.00;99176.22;5265204;28;20032;-72
2023/03/08 10:50:58;;;;;;;14.27;12.77;;;;;;;2.19;100.00;99182.31;5264980;28;20158;-71
2023/03/08 10:53:31;;;;;;;14.82;12.35;;;;;;;1.98;100.00;99187.53;5264895;28;20029;-72
2023/03/08 10:56:18;;;;;;;14.07;12.55;;;;;;;1.73;100.00;99186.75;5263656;28;20040;-71
2023/03/08 10:58:54;;;;;;;14.20;12.57;;;;;;;1.89;100.00;99187.56;5264664;28;20029;-73
2023/03/08 11:01:33;;;;;;;14.07;12.45;;;;;;;2.06;100.00;99200.34;5264889;28;20059;-72
2023/03/08 11:04:17;;;;;;;14.45;12.98;;;;;;;1.98;100.00;99206.38;5263462;28;20029;-73
2023/03/08 11:06:48;;;;;;;13.95;11.82;;;;;;;1.90;100.00;99212.38;5263593;28;20136;-73
2023/03/08 11:09:35;;;;;;;15.50;12.47;;;;;;;1.78;100.00;99208.16;5264708;28;20384;-73
2023/03/08 11:12:23;;;;;;;12.50;11.20;;;;;;;1.72;100.00;99206.44;5264714;28;20029;-74
2023/03/08 11:14:55;;;;;;;14.75;11.73;;;;;;;1.71;100.00;99209.03;5264163;28;20115;-72
2023/03/08 11:17:38;;;;;;;12.97;11.67;;;;;;;1.80;100.00;99203.84;5246163;28;20112;-74
2023/03/08 11:20:20;;;;;;;13.20;11.77;;;;;;;1.79;100.00;99197.88;5263636;28;20091;-73
2023/03/08 11:23:18;;;;;;;14.80;13.23;;;;;;;1.82;100.00;99179.03;5263952;28;20037;-73
2023/03/08 11:25:55;;;;;;;13.50;12.07;;;;;;;1.81;100.00;99161.91;5263707;28;20036;-71
2023/03/08 11:28:52;;;;;;;12.98;11.60;;;;;;;2.05;100.00;99172.97;5263368;28;20087;-71
2023/03/08 11:31:54;;;;;;;13.23;11.82;;;;;;;2.30;100.00;99182.25;5263710;28;20111;-73
2023/03/08 11:34:58;;;;;;;12.40;11.05;;;;;;;2.46;100.00;99184.72;5261574;28;20048;-71
2023/03/08 11:37:55;;;;;;;12.55;11.25;;;;;;;2.55;100.00;99174.41;5263613;28;20047;-72
2023/03/08 11:40:45;;;;;;;12.63;11.32;;;;;;;2.71;100.00;99175.16;5264698;28;20025;-72
2023/03/08 11:43:23;;;;;;;9.95;8.95;;;;;;;2.45;100.00;99163.31;5284296;28;20033;-72
2023/03/08 11:46:03;;;;;;;9.90;8.88;;;;;;;2.32;100.00;99164.25;5274995;28;20031;-74